Aviation Digital Data Service (ADDS)

Output produced by METARs form (0024 UTC 17 July 2019)
found at http://www.aviationweather.gov/metar/data/
 
DBBB 162100Z 23004KT 9999 FEW011 24/23 Q1014 NOSIG
TAF DBBB 162300Z 1700/1806 28003KT 9999 SCT012 
     TEMPO 1704/1709 4000 BR BKN010 
     BECMG 1709/1711 22010KT